Time;durP1;ratioP1;P1;durP2;ratioP2;P2;SDS_P1;SDS_P2;PMS_P1;PMS_P2;Temp;Humidity;BMP_temperature;BMP_pressure;BME280_temperature;BME280_humidity;BME280_pressure;Samples;Min_cycle;Max_cycle;Signal;HPM_P1;HPM_P2
2021/06/01 00:00:09;;;;;;;10.93;8.85;;;;;;;;;;1461650;40;20424;-85
2021/06/01 00:01:11;;;;;;;12.47;9.63;;;;;;;;;;1459746;40;20559;-85
2021/06/01 00:02:13;;;;;;;11.15;9.95;;;;;;;;;;1457386;40;20411;-84
2021/06/01 00:03:16;;;;;;;14.00;10.73;;;;;;;;;;1450745;40;20516;-85
2021/06/01 00:04:18;;;;;;;12.95;9.85;;;;;;;;;;1449848;40;20915;-85
2021/06/01 00:05:20;;;;;;;13.15;9.52;;;;;;;;;;1453798;40;20452;-85
2021/06/01 00:06:22;;;;;;;13.48;9.60;;;;;;;;;;1449650;41;20437;-85
2021/06/01 00:07:23;;;;;;;13.77;9.88;;;;;;;;;;1449125;40;20418;-84
2021/06/01 00:08:25;;;;;;;11.02;9.45;;;;;;;;;;1453745;40;20830;-84
2021/06/01 00:09:27;;;;;;;13.73;9.80;;;;;;;;;;1458199;40;20411;-84
2021/06/01 00:10:29;;;;;;;11.85;9.57;;;;;;;;;;1453913;40;20428;-84
2021/06/01 00:11:31;;;;;;;19.03;10.03;;;;;;;;;;1453454;40;20542;-87
2021/06/01 00:12:33;;;;;;;11.85;9.68;;;;;;;;;;1457096;40;20434;-87
2021/06/01 00:13:35;;;;;;;13.88;9.35;;;;;;;;;;1456964;40;20422;-87
2021/06/01 00:14:36;;;;;;;11.68;9.63;;;;;;;;;;1454114;40;20436;-86
2021/06/01 00:15:38;;;;;;;11.70;9.63;;;;;;;;;;1458317;40;20530;-85
2021/06/01 00:16:40;;;;;;;13.45;9.48;;;;;;;;;;1457961;40;20427;-85
2021/06/01 00:17:41;;;;;;;11.85;9.43;;;;;;;;;;1450107;41;20464;-83
2021/06/01 00:18:44;;;;;;;10.67;9.33;;;;;;;;;;1450032;40;20566;-83
2021/06/01 00:19:46;;;;;;;10.77;9.60;;;;;;;;;;1456797;40;20414;-83
2021/06/01 00:20:48;;;;;;;11.35;9.45;;;;;;;;;;1453504;40;20424;-84
2021/06/01 00:21:50;;;;;;;12.18;9.45;;;;;;;;;;1450829;40;20461;-82
2021/06/01 00:22:51;;;;;;;12.27;9.57;;;;;;;;;;1459174;40;20518;-81
2021/06/01 00:23:54;;;;;;;10.63;9.32;;;;;;;;;;1464679;40;20443;-81
2021/06/01 00:24:55;;;;;;;11.27;9.07;;;;;;;;;;1457640;40;20438;-81
2021/06/01 00:25:57;;;;;;;10.00;8.55;;;;;;;;;;1460567;40;20529;-82
2021/06/01 00:26:59;;;;;;;11.40;8.63;;;;;;;;;;1456782;40;20980;-84
2021/06/01 00:28:00;;;;;;;10.77;8.70;;;;;;;;;;1453797;40;20497;-87
2021/06/01 00:29:03;;;;;;;9.98;8.43;;;;;;;;;;1458726;40;20416;-84
2021/06/01 00:30:05;;;;;;;11.50;9.40;;;;;;;;;;1461170;40;20423;-84
2021/06/01 00:31:07;;;;;;;10.60;8.95;;;;;;;;;;1459242;40;20497;-86
2021/06/01 00:32:09;;;;;;;10.27;8.85;;;;;;;;;;1461698;40;20512;-83
2021/06/01 00:33:11;;;;;;;10.60;8.45;;;;;;;;;;1460917;40;20459;-81
2021/06/01 00:34:13;;;;;;;9.90;8.05;;;;;;;;;;1455939;40;20412;-83
2021/06/01 00:35:16;;;;;;;9.75;8.23;;;;;;;;;;1452713;40;20438;-82
2021/06/01 00:36:18;;;;;;;10.18;9.15;;;;;;;;;;1453798;40;20548;-83
2021/06/01 00:37:19;;;;;;;10.95;8.63;;;;;;;;;;1454454;40;20476;-84
2021/06/01 00:38:22;;;;;;;10.60;8.55;;;;;;;;;;1461248;40;20468;-83
2021/06/01 00:39:24;;;;;;;11.10;8.73;;;;;;;;;;1459417;40;20403;-82
2021/06/01 00:40:26;;;;;;;8.93;7.70;;;;;;;;;;1464721;40;20502;-83
2021/06/01 00:41:27;;;;;;;13.35;8.23;;;;;;;;;;1457218;40;20474;-83
2021/06/01 00:42:29;;;;;;;10.90;8.25;;;;;;;;;;1457502;40;20804;-83
2021/06/01 00:43:31;;;;;;;11.02;8.43;;;;;;;;;;1462539;40;20484;-82
2021/06/01 00:44:33;;;;;;;10.48;8.38;;;;;;;;;;1460710;40;20405;-84
2021/06/01 00:45:35;;;;;;;10.57;8.20;;;;;;;;;;1456944;40;20433;-85
2021/06/01 00:46:37;;;;;;;11.90;8.30;;;;;;;;;;1456993;40;20415;-86
2021/06/01 00:47:39;;;;;;;11.68;8.82;;;;;;;;;;1461422;40;20881;-86
2021/06/01 00:48:42;;;;;;;10.48;9.02;;;;;;;;;;1453450;40;20973;-83
2021/06/01 00:49:44;;;;;;;10.38;7.75;;;;;;;;;;1453389;40;20939;-83
2021/06/01 00:50:46;;;;;;;11.15;8.38;;;;;;;;;;1461514;40;20933;-82
2021/06/01 00:51:47;;;;;;;12.35;8.68;;;;;;;;;;1457265;40;20426;-83
2021/06/01 00:52:49;;;;;;;9.63;8.13;;;;;;;;;;1458926;40;20403;-83
2021/06/01 00:53:51;;;;;;;11.55;8.88;;;;;;;;;;1465757;40;20436;-83
2021/06/01 00:54:54;;;;;;;10.88;8.38;;;;;;;;;;1460225;40;20839;-83
2021/06/01 00:55:55;;;;;;;12.20;8.38;;;;;;;;;;1457039;40;20715;-83
2021/06/01 00:56:57;;;;;;;9.63;8.27;;;;;;;;;;1456978;40;20428;-83
2021/06/01 00:57:59;;;;;;;11.32;8.93;;;;;;;;;;1456000;40;20448;-83
2021/06/01 00:59:00;;;;;;;9.45;7.65;;;;;;;;;;1451375;40;20526;-83
2021/06/01 01:00:11;;;;;;;9.63;7.68;;;;;;;;;;1458214;40;20490;-82
2021/06/01 01:01:20;;;;;;;10.00;8.43;;;;;;;;;;1458683;40;20571;-82
2021/06/01 01:02:22;;;;;;;10.43;8.18;;;;;;;;;;1456242;40;20993;-84
2021/06/01 01:03:23;;;;;;;9.73;7.88;;;;;;;;;;1453595;40;20576;-82
2021/06/01 01:04:26;;;;;;;9.05;8.10;;;;;;;;;;1457629;40;20407;-83
2021/06/01 01:05:35;;;;;;;9.07;7.82;;;;;;;;;;1457964;40;20524;-83
2021/06/01 01:06:52;;;;;;;9.38;7.20;;;;;;;;;;1461934;40;20408;-83
2021/06/01 01:08:06;;;;;;;8.90;7.97;;;;;;;;;;1458195;40;20477;-81
2021/06/01 01:09:11;;;;;;;9.60;7.82;;;;;;;;;;1461908;40;20452;-81
2021/06/01 01:10:14;;;;;;;10.65;8.73;;;;;;;;;;1464931;40;20634;-81
2021/06/01 01:12:00;;;;;;;11.65;7.80;;;;;;;;;;1465139;40;20791;-81
2021/06/01 01:13:05;;;;;;;9.85;7.65;;;;;;;;;;1449656;40;20501;-81
2021/06/01 01:14:26;;;;;;;9.82;7.65;;;;;;;;;;1457772;40;20497;-81
2021/06/01 01:15:29;;;;;;;10.20;7.63;;;;;;;;;;1457688;40;20532;-81
2021/06/01 01:16:33;;;;;;;8.80;7.43;;;;;;;;;;1461524;40;20412;-82
2021/06/01 01:17:52;;;;;;;8.43;6.90;;;;;;;;;;1461626;40;20479;-81
2021/06/01 01:19:07;;;;;;;9.40;7.30;;;;;;;;;;1457290;40;20419;-82
2021/06/01 01:20:49;;;;;;;14.10;7.63;;;;;;;;;;1452362;40;20587;-81
2021/06/01 01:21:55;;;;;;;9.85;7.72;;;;;;;;;;1451243;40;20529;-82
2021/06/01 01:23:00;;;;;;;9.57;7.13;;;;;;;;;;1453535;40;20436;-82
2021/06/01 01:24:26;;;;;;;10.32;7.68;;;;;;;;;;1461523;40;20432;-85
2021/06/01 01:25:57;;;;;;;8.13;7.28;;;;;;;;;;1459917;40;20527;-83
2021/06/01 01:26:58;;;;;;;8.40;7.18;;;;;;;;;;1456047;40;20513;-82
2021/06/01 01:28:14;;;;;;;8.95;7.07;;;;;;;;;;1456863;40;20888;-81
2021/06/01 01:29:21;;;;;;;8.68;6.95;;;;;;;;;;1463848;40;20401;-81
2021/06/01 01:30:25;;;;;;;7.82;6.97;;;;;;;;;;1459001;40;20441;-81
2021/06/01 01:31:37;;;;;;;10.82;7.63;;;;;;;;;;1454995;40;20412;-82
2021/06/01 01:32:48;;;;;;;7.60;6.80;;;;;;;;;;1457565;40;20435;-82
2021/06/01 01:33:51;;;;;;;7.97;7.18;;;;;;;;;;1460758;40;20417;-81
2021/06/01 01:34:55;;;;;;;9.82;7.38;;;;;;;;;;1453195;40;20444;-82
2021/06/01 01:36:01;;;;;;;9.52;6.75;;;;;;;;;;1453392;40;20428;-82
2021/06/01 01:37:06;;;;;;;8.93;6.78;;;;;;;;;;1456907;40;20411;-82
2021/06/01 01:38:08;;;;;;;9.40;6.90;;;;;;;;;;1454597;40;20555;-81
2021/06/01 01:39:11;;;;;;;9.52;7.32;;;;;;;;;;1459548;40;20426;-82
2021/06/01 01:40:14;;;;;;;8.93;6.63;;;;;;;;;;1457134;40;20439;-82
2021/06/01 01:41:17;;;;;;;7.90;7.10;;;;;;;;;;1461643;40;20491;-83
2021/06/01 01:42:19;;;;;;;8.07;6.28;;;;;;;;;;1462046;40;20429;-82
2021/06/01 01:43:25;;;;;;;10.15;6.80;;;;;;;;;;1461098;40;20409;-82
2021/06/01 01:44:29;;;;;;;8.57;5.95;;;;;;;;;;1451221;40;20416;-81
2021/06/01 01:45:36;;;;;;;7.40;6.60;;;;;;;;;;1453749;40;20424;-81
2021/06/01 01:49:23;;;;;;;8.70;6.28;;;;;;;;;;1448566;40;20984;-83
2021/06/01 01:50:25;;;;;;;7.95;6.40;;;;;;;;;;1456141;40;20899;-81
2021/06/01 01:51:40;;;;;;;9.73;6.47;;;;;;;;;;1455631;40;20427;-81
2021/06/01 01:52:42;;;;;;;8.65;6.38;;;;;;;;;;1453606;40;20409;-86
2021/06/01 01:53:57;;;;;;;7.28;5.95;;;;;;;;;;1460593;40;20465;-85
2021/06/01 01:54:59;;;;;;;9.93;6.25;;;;;;;;;;1461311;40;20487;-82
2021/06/01 01:56:01;;;;;;;8.55;5.97;;;;;;;;;;1457478;40;20418;-84
2021/06/01 01:57:09;;;;;;;8.02;6.47;;;;;;;;;;1456996;40;20427;-81
2021/06/01 01:58:12;;;;;;;7.40;5.60;;;;;;;;;;1461195;40;20464;-81
2021/06/01 01:59:16;;;;;;;8.75;6.32;;;;;;;;;;1456261;40;20423;-82
2021/06/01 02:00:19;;;;;;;7.88;6.10;;;;;;;;;;1457302;40;20414;-83
2021/06/01 02:01:22;;;;;;;8.50;6.30;;;;;;;;;;1460973;40;20515;-82
2021/06/01 02:02:24;;;;;;;8.90;6.22;;;;;;;;;;1457247;40;20951;-81
2021/06/01 02:03:27;;;;;;;7.43;5.70;;;;;;;;;;1452935;40;20801;-81
2021/06/01 02:04:30;;;;;;;6.70;5.55;;;;;;;;;;1450956;40;20422;-83
2021/06/01 02:05:32;;;;;;;7.22;6.30;;;;;;;;;;1452748;40;20849;-80
2021/06/01 02:06:34;;;;;;;6.63;5.88;;;;;;;;;;1456713;40;20785;-82
2021/06/01 02:07:36;;;;;;;8.63;5.50;;;;;;;;;;1456813;40;20894;-82
2021/06/01 02:08:43;;;;;;;6.10;5.28;;;;;;;;;;1459378;40;20420;-84
2021/06/01 02:09:45;;;;;;;6.03;5.22;;;;;;;;;;1460724;40;20401;-82
2021/06/01 02:10:47;;;;;;;7.28;5.53;;;;;;;;;;1460798;40;20803;-82
2021/06/01 02:11:49;;;;;;;5.88;5.20;;;;;;;;;;1458758;40;20427;-82
2021/06/01 02:12:51;;;;;;;7.63;5.50;;;;;;;;;;1456777;40;20523;-84
2021/06/01 02:13:59;;;;;;;6.25;5.18;;;;;;;;;;1455522;40;20413;-81
2021/06/01 02:15:03;;;;;;;6.68;5.10;;;;;;;;;;1457373;40;20626;-82
2021/06/01 02:16:05;;;;;;;5.57;5.07;;;;;;;;;;1461100;40;21245;-82
2021/06/01 02:17:06;;;;;;;6.65;4.80;;;;;;;;;;1456401;40;20449;-81
2021/06/01 02:18:08;;;;;;;7.18;4.95;;;;;;;;;;1453194;40;20491;-82
2021/06/01 02:19:13;;;;;;;7.63;5.38;;;;;;;;;;1456953;40;20407;-82
2021/06/01 02:20:15;;;;;;;5.60;5.07;;;;;;;;;;1454801;40;20466;-83
2021/06/01 02:21:34;;;;;;;5.35;4.80;;;;;;;;;;1456904;40;20402;-82
2021/06/01 02:23:56;;;;;;;6.47;4.90;;;;;;;;;;1457654;40;20406;-82
2021/06/01 02:25:05;;;;;;;7.32;5.28;;;;;;;;;;1463842;40;20440;-81
2021/06/01 02:26:34;;;;;;;6.35;4.82;;;;;;;;;;1464498;40;20558;-83
2021/06/01 02:27:40;;;;;;;5.18;4.55;;;;;;;;;;1460844;40;20411;-81
2021/06/01 02:28:46;;;;;;;6.90;4.45;;;;;;;;;;1461377;40;21129;-83
2021/06/01 02:30:00;;;;;;;7.50;5.05;;;;;;;;;;1462479;40;20419;-82
2021/06/01 02:31:04;;;;;;;7.50;5.47;;;;;;;;;;1464121;40;20425;-81
2021/06/01 02:32:08;;;;;;;5.13;4.15;;;;;;;;;;1461023;40;20941;-81
2021/06/01 02:33:10;;;;;;;6.28;4.70;;;;;;;;;;1461837;40;20417;-82
2021/06/01 02:34:13;;;;;;;6.28;4.63;;;;;;;;;;1460643;40;20887;-81
2021/06/01 02:35:21;;;;;;;4.85;4.00;;;;;;;;;;1461362;40;20787;-83
2021/06/01 02:36:24;;;;;;;5.75;4.20;;;;;;;;;;1452896;40;20474;-81
2021/06/01 02:37:26;;;;;;;4.63;4.00;;;;;;;;;;1453373;40;20821;-83
2021/06/01 02:38:31;;;;;;;5.00;4.28;;;;;;;;;;1452897;40;20466;-83
2021/06/01 02:39:34;;;;;;;5.50;4.50;;;;;;;;;;1453169;40;20405;-82
2021/06/01 02:40:37;;;;;;;4.18;3.60;;;;;;;;;;1456688;40;20410;-83
2021/06/01 02:41:39;;;;;;;6.07;4.22;;;;;;;;;;1457022;40;20789;-84
2021/06/01 02:42:43;;;;;;;4.32;3.92;;;;;;;;;;1455269;40;20415;-86
2021/06/01 02:43:45;;;;;;;4.35;3.90;;;;;;;;;;1457229;40;21161;-85
2021/06/01 02:44:47;;;;;;;5.72;3.92;;;;;;;;;;1462560;40;20435;-84
2021/06/01 02:45:50;;;;;;;4.45;3.72;;;;;;;;;;1461646;40;20405;-84
2021/06/01 02:46:52;;;;;;;4.25;3.65;;;;;;;;;;1457869;40;20418;-84
2021/06/01 02:47:54;;;;;;;5.88;4.00;;;;;;;;;;1459366;40;20453;-84
2021/06/01 02:48:57;;;;;;;4.95;3.38;;;;;;;;;;1464840;40;20447;-84
2021/06/01 02:50:01;;;;;;;6.70;4.10;;;;;;;;;;1460106;40;20510;-82
2021/06/01 02:51:15;;;;;;;4.65;3.70;;;;;;;;;;1463123;40;21101;-83
2021/06/01 02:52:19;;;;;;;4.20;3.55;;;;;;;;;;1458960;40;20976;-83
2021/06/01 02:53:22;;;;;;;4.72;3.58;;;;;;;;;;1455244;40;20572;-83
2021/06/01 02:54:24;;;;;;;4.97;3.25;;;;;;;;;;1466458;40;20399;-83
2021/06/01 02:55:26;;;;;;;6.88;3.47;;;;;;;;;;1450202;40;21072;-84
2021/06/01 02:56:28;;;;;;;6.65;3.83;;;;;;;;;;1449695;40;20446;-84
2021/06/01 02:57:30;;;;;;;3.22;2.92;;;;;;;;;;1464523;40;20425;-84
2021/06/01 02:58:32;;;;;;;4.45;3.58;;;;;;;;;;1467725;40;20461;-83
2021/06/01 02:59:37;;;;;;;3.90;3.50;;;;;;;;;;1467670;40;20444;-83
2021/06/01 03:00:41;;;;;;;3.58;3.13;;;;;;;;;;1467349;40;20400;-84
2021/06/01 03:01:42;;;;;;;5.57;3.70;;;;;;;;;;1469736;40;20418;-87
2021/06/01 03:02:44;;;;;;;4.50;3.47;;;;;;;;;;1463893;40;20478;-84
2021/06/01 03:03:48;;;;;;;3.28;2.75;;;;;;;;;;1458139;40;20439;-83
2021/06/01 03:04:52;;;;;;;3.80;3.40;;;;;;;;;;1461488;40;20439;-83
2021/06/01 03:05:54;;;;;;;3.20;2.90;;;;;;;;;;1461765;40;20437;-81
2021/06/01 03:06:56;;;;;;;3.17;2.85;;;;;;;;;;1462094;40;20460;-81
2021/06/01 03:08:11;;;;;;;6.18;3.67;;;;;;;;;;1462925;40;20561;-84
2021/06/01 03:09:13;;;;;;;3.40;3.10;;;;;;;;;;1464644;40;20751;-81
2021/06/01 03:10:15;;;;;;;4.93;2.80;;;;;;;;;;1462043;40;20692;-83
2021/06/01 03:11:19;;;;;;;5.25;2.75;;;;;;;;;;1459937;40;20445;-82
2021/06/01 03:12:39;;;;;;;2.75;2.55;;;;;;;;;;1452037;40;20405;-83
2021/06/01 03:13:41;;;;;;;6.35;3.10;;;;;;;;;;1458301;40;20462;-83
2021/06/01 03:14:42;;;;;;;3.60;3.10;;;;;;;;;;1461440;40;20441;-82
2021/06/01 03:15:44;;;;;;;4.38;2.92;;;;;;;;;;1461614;40;20697;-83
2021/06/01 03:16:46;;;;;;;3.10;2.70;;;;;;;;;;1454554;40;20415;-82
2021/06/01 03:17:47;;;;;;;5.10;3.22;;;;;;;;;;1453055;40;20884;-84
2021/06/01 03:18:49;;;;;;;3.78;3.40;;;;;;;;;;1457594;40;20430;-81
2021/06/01 03:19:51;;;;;;;3.72;2.78;;;;;;;;;;1457831;40;20768;-87
2021/06/01 03:20:53;;;;;;;5.38;3.00;;;;;;;;;;1452791;40;21106;-82
2021/06/01 03:21:54;;;;;;;4.05;2.95;;;;;;;;;;1456710;40;20433;-81
2021/06/01 03:22:56;;;;;;;5.78;2.92;;;;;;;;;;1465180;40;20427;-82
2021/06/01 03:23:58;;;;;;;4.53;2.67;;;;;;;;;;1465148;40;20407;-82
2021/06/01 03:24:59;;;;;;;3.13;2.83;;;;;;;;;;1465409;40;20427;-82
2021/06/01 03:26:05;;;;;;;3.67;2.60;;;;;;;;;;1462567;40;20417;-82
2021/06/01 03:27:06;;;;;;;4.53;3.00;;;;;;;;;;1457242;40;20794;-81
2021/06/01 03:28:08;;;;;;;3.83;3.20;;;;;;;;;;1457832;40;20442;-82
2021/06/01 03:29:10;;;;;;;4.13;2.97;;;;;;;;;;1462057;40;20436;-84
2021/06/01 03:30:12;;;;;;;5.25;3.10;;;;;;;;;;1462613;40;20734;-82
2021/06/01 03:31:14;;;;;;;5.40;3.25;;;;;;;;;;1462778;40;20779;-83
2021/06/01 03:32:16;;;;;;;3.95;3.28;;;;;;;;;;1466791;40;20677;-84
2021/06/01 03:33:18;;;;;;;4.38;2.83;;;;;;;;;;1454220;40;20498;-84
2021/06/01 03:34:19;;;;;;;4.00;3.03;;;;;;;;;;1454013;40;20563;-84
2021/06/01 03:35:22;;;;;;;4.53;2.95;;;;;;;;;;1463532;40;21032;-85
2021/06/01 03:36:24;;;;;;;3.97;2.80;;;;;;;;;;1455129;40;20452;-84
2021/06/01 03:37:26;;;;;;;4.45;2.53;;;;;;;;;;1454064;40;20734;-84
2021/06/01 03:38:28;;;;;;;4.82;3.10;;;;;;;;;;1460105;40;20717;-83
2021/06/01 03:39:31;;;;;;;4.63;3.20;;;;;;;;;;1457697;40;20406;-81
2021/06/01 03:40:33;;;;;;;4.38;2.85;;;;;;;;;;1453925;40;20460;-82
2021/06/01 03:41:36;;;;;;;6.13;3.07;;;;;;;;;;1458472;40;20578;-82
2021/06/01 03:42:37;;;;;;;6.78;3.35;;;;;;;;;;1461230;40;20445;-84
2021/06/01 03:43:39;;;;;;;4.03;3.10;;;;;;;;;;1446406;41;20996;-84
2021/06/01 03:44:42;;;;;;;3.53;2.95;;;;;;;;;;1450351;40;20418;-84
2021/06/01 03:45:44;;;;;;;4.55;3.22;;;;;;;;;;1454112;40;21165;-86
2021/06/01 03:46:45;;;;;;;5.82;3.30;;;;;;;;;;1453918;40;20407;-83
2021/06/01 03:47:47;;;;;;;8.05;3.67;;;;;;;;;;1449505;41;20429;-82
2021/06/01 03:48:49;;;;;;;4.50;3.33;;;;;;;;;;1449161;40;20440;-82
2021/06/01 03:49:50;;;;;;;4.57;3.00;;;;;;;;;;1453525;40;20409;-82
2021/06/01 03:50:52;;;;;;;4.22;3.15;;;;;;;;;;1457911;40;20447;-83
2021/06/01 03:51:54;;;;;;;3.83;3.03;;;;;;;;;;1455642;40;20452;-84
2021/06/01 03:52:55;;;;;;;4.32;2.95;;;;;;;;;;1455984;40;20434;-82
2021/06/01 03:53:57;;;;;;;4.90;2.88;;;;;;;;;;1457572;40;20646;-83
2021/06/01 03:54:59;;;;;;;3.13;2.83;;;;;;;;;;1453793;40;21104;-85
2021/06/01 03:56:01;;;;;;;3.08;2.75;;;;;;;;;;1459929;40;20414;-82
2021/06/01 03:57:03;;;;;;;5.75;2.70;;;;;;;;;;1453527;40;20544;-82
2021/06/01 03:58:05;;;;;;;3.40;3.05;;;;;;;;;;1457382;40;20440;-83
2021/06/01 03:59:07;;;;;;;6.38;3.40;;;;;;;;;;1464287;40;20642;-82
2021/06/01 04:00:10;;;;;;;4.38;2.72;;;;;;;;;;1452959;40;20429;-82
2021/06/01 04:01:12;;;;;;;5.05;3.03;;;;;;;;;;1456180;40;20405;-83
2021/06/01 04:02:14;;;;;;;3.00;2.50;;;;;;;;;;1461665;40;20526;-83
2021/06/01 04:03:15;;;;;;;4.60;2.58;;;;;;;;;;1461980;40;20788;-84
2021/06/01 04:04:17;;;;;;;3.72;2.97;;;;;;;;;;1460990;40;20418;-84
2021/06/01 04:05:18;;;;;;;4.30;2.80;;;;;;;;;;1457025;40;20407;-84
2021/06/01 04:06:20;;;;;;;4.15;3.10;;;;;;;;;;1454199;40;20416;-81
2021/06/01 04:07:21;;;;;;;4.32;2.97;;;;;;;;;;1456868;40;20419;-82
2021/06/01 04:08:23;;;;;;;3.08;2.75;;;;;;;;;;1456239;40;20492;-83
2021/06/01 04:09:25;;;;;;;3.17;2.67;;;;;;;;;;1459392;40;20871;-82
2021/06/01 04:10:26;;;;;;;5.38;3.33;;;;;;;;;;1453937;40;20488;-84
2021/06/01 04:11:30;;;;;;;4.30;2.50;;;;;;;;;;1451527;40;20844;-82
2021/06/01 04:12:33;;;;;;;4.68;2.55;;;;;;;;;;1456731;40;20411;-83
2021/06/01 04:13:34;;;;;;;4.03;3.10;;;;;;;;;;1455989;40;20409;-84
2021/06/01 04:14:37;;;;;;;4.13;2.53;;;;;;;;;;1450879;40;20451;-84
2021/06/01 04:15:38;;;;;;;4.00;3.22;;;;;;;;;;1455447;40;20898;-86
2021/06/01 04:16:40;;;;;;;3.15;2.53;;;;;;;;;;1456624;40;20397;-85
2021/06/01 04:17:42;;;;;;;5.18;3.00;;;;;;;;;;1461573;40;20402;-85
2021/06/01 04:18:44;;;;;;;2.95;2.75;;;;;;;;;;1463424;40;20393;-84
2021/06/01 04:19:46;;;;;;;3.00;2.58;;;;;;;;;;1455641;40;20762;-85
2021/06/01 04:20:48;;;;;;;3.85;2.40;;;;;;;;;;1454903;40;20828;-86
2021/06/01 04:21:51;;;;;;;5.10;3.15;;;;;;;;;;1460688;40;20444;-84
2021/06/01 04:22:53;;;;;;;3.53;2.40;;;;;;;;;;1460285;40;20563;-83
2021/06/01 04:23:54;;;;;;;3.65;3.20;;;;;;;;;;1455060;40;21247;-83
2021/06/01 04:24:56;;;;;;;3.70;3.13;;;;;;;;;;1459170;40;20484;-83
2021/06/01 04:25:57;;;;;;;5.47;2.70;;;;;;;;;;1462498;40;20456;-83
2021/06/01 04:27:00;;;;;;;5.07;2.90;;;;;;;;;;1465440;40;20403;-84
2021/06/01 04:28:02;;;;;;;3.78;2.72;;;;;;;;;;1463005;40;20835;-84
2021/06/01 04:29:04;;;;;;;3.05;2.65;;;;;;;;;;1464944;40;20882;-83
2021/06/01 04:30:07;;;;;;;4.40;2.80;;;;;;;;;;1458413;40;20581;-84
2021/06/01 04:31:09;;;;;;;7.07;2.83;;;;;;;;;;1455119;40;20428;-84
2021/06/01 04:32:11;;;;;;;4.32;2.70;;;;;;;;;;1449520;40;20426;-84
2021/06/01 04:33:13;;;;;;;5.30;2.90;;;;;;;;;;1455898;40;20733;-84
2021/06/01 04:34:15;;;;;;;6.07;2.90;;;;;;;;;;1457309;40;20514;-84
2021/06/01 04:35:17;;;;;;;3.38;2.75;;;;;;;;;;1453660;40;20432;-84
2021/06/01 04:36:19;;;;;;;4.45;2.58;;;;;;;;;;1460056;40;20815;-85
2021/06/01 04:37:20;;;;;;;3.58;2.35;;;;;;;;;;1461128;40;20412;-84
2021/06/01 04:38:22;;;;;;;4.10;2.60;;;;;;;;;;1464347;40;20546;-84
2021/06/01 04:39:23;;;;;;;4.32;2.50;;;;;;;;;;1457407;40;20517;-85
2021/06/01 04:40:25;;;;;;;2.80;2.60;;;;;;;;;;1460214;40;20409;-82
2021/06/01 04:41:27;;;;;;;2.70;2.47;;;;;;;;;;1459454;40;20415;-82
2021/06/01 04:42:28;;;;;;;3.03;2.78;;;;;;;;;;1456958;40;20425;-82
2021/06/01 04:43:30;;;;;;;4.13;2.72;;;;;;;;;;1450969;40;21393;-82
2021/06/01 04:44:35;;;;;;;5.22;2.60;;;;;;;;;;1450478;40;20867;-83
2021/06/01 04:45:36;;;;;;;8.93;2.95;;;;;;;;;;1455293;40;20432;-82
2021/06/01 04:46:38;;;;;;;4.97;2.20;;;;;;;;;;1458332;40;20687;-83
2021/06/01 04:47:44;;;;;;;6.65;2.63;;;;;;;;;;1457563;40;20402;-82
2021/06/01 04:48:45;;;;;;;4.45;2.97;;;;;;;;;;1457445;40;20708;-85
2021/06/01 04:49:48;;;;;;;5.22;2.92;;;;;;;;;;1457409;40;20462;-84
2021/06/01 04:50:50;;;;;;;4.67;2.60;;;;;;;;;;1464551;40;20880;-83
2021/06/01 04:51:53;;;;;;;3.63;2.88;;;;;;;;;;1462878;40;20401;-83
2021/06/01 04:52:55;;;;;;;4.40;3.08;;;;;;;;;;1453258;40;20754;-83
2021/06/01 04:53:59;;;;;;;4.32;2.50;;;;;;;;;;1451966;40;20422;-83
2021/06/01 04:55:00;;;;;;;5.03;2.60;;;;;;;;;;1451895;40;20413;-84
2021/06/01 04:56:03;;;;;;;3.38;3.13;;;;;;;;;;1453638;40;20421;-84
2021/06/01 04:57:06;;;;;;;5.93;2.83;;;;;;;;;;1459607;40;20822;-83
2021/06/01 04:58:07;;;;;;;4.00;2.78;;;;;;;;;;1459886;40;20485;-84
2021/06/01 04:59:09;;;;;;;3.33;2.90;;;;;;;;;;1458358;40;20841;-85
2021/06/01 05:00:11;;;;;;;4.27;2.93;;;;;;;;;;1452030;40;20627;-84
2021/06/01 05:01:14;;;;;;;5.22;3.40;;;;;;;;;;1456571;40;20482;-85
2021/06/01 05:02:16;;;;;;;3.97;2.60;;;;;;;;;;1461374;40;20421;-84
2021/06/01 05:03:22;;;;;;;5.30;2.47;;;;;;;;;;1456893;40;20780;-82
2021/06/01 05:04:24;;;;;;;3.17;2.88;;;;;;;;;;1453713;40;20486;-83
2021/06/01 05:05:25;;;;;;;4.03;2.70;;;;;;;;;;1455475;40;20413;-82
2021/06/01 05:06:30;;;;;;;4.68;2.80;;;;;;;;;;1453008;40;21026;-86
2021/06/01 05:07:32;;;;;;;3.83;2.95;;;;;;;;;;1452922;40;20400;-84
2021/06/01 05:08:34;;;;;;;4.28;3.25;;;;;;;;;;1459086;40;20481;-84
2021/06/01 05:09:36;;;;;;;3.13;2.75;;;;;;;;;;1450152;40;20756;-84
2021/06/01 05:10:37;;;;;;;4.20;2.95;;;;;;;;;;1454920;40;20429;-82
2021/06/01 05:11:39;;;;;;;3.22;2.85;;;;;;;;;;1458600;40;20446;-83
2021/06/01 05:12:40;;;;;;;4.38;2.70;;;;;;;;;;1448880;40;20414;-85
2021/06/01 05:13:44;;;;;;;6.88;3.30;;;;;;;;;;1450578;40;20823;-87
2021/06/01 05:14:45;;;;;;;6.13;3.30;;;;;;;;;;1454782;40;20828;-85
2021/06/01 05:15:49;;;;;;;3.92;2.90;;;;;;;;;;1451776;40;20401;-85
2021/06/01 05:16:50;;;;;;;4.18;3.15;;;;;;;;;;1454823;40;20423;-82
2021/06/01 05:17:52;;;;;;;5.68;2.90;;;;;;;;;;1458083;40;20470;-83
2021/06/01 05:18:53;;;;;;;3.35;3.05;;;;;;;;;;1456107;40;21254;-84
2021/06/01 05:19:55;;;;;;;3.17;2.88;;;;;;;;;;1458626;40;20422;-84
2021/06/01 05:20:57;;;;;;;6.30;3.80;;;;;;;;;;1457642;40;20422;-82
2021/06/01 05:21:59;;;;;;;5.75;3.33;;;;;;;;;;1465808;40;20414;-83
2021/06/01 05:23:01;;;;;;;5.30;3.10;;;;;;;;;;1464734;40;20570;-83
2021/06/01 05:24:03;;;;;;;3.67;2.80;;;;;;;;;;1463067;40;21009;-85
2021/06/01 05:25:06;;;;;;;4.43;3.10;;;;;;;;;;1459582;40;20453;-83
2021/06/01 05:26:08;;;;;;;3.50;3.17;;;;;;;;;;1451295;40;20422;-84
2021/06/01 05:27:10;;;;;;;5.65;2.80;;;;;;;;;;1458066;40;20415;-84
2021/06/01 05:28:12;;;;;;;4.18;2.97;;;;;;;;;;1465270;40;20412;-81
2021/06/01 05:29:13;;;;;;;5.80;3.05;;;;;;;;;;1465694;40;20424;-81
2021/06/01 05:30:21;;;;;;;5.05;3.00;;;;;;;;;;1462059;40;20421;-83
2021/06/01 05:31:43;;;;;;;5.50;3.08;;;;;;;;;;1464828;40;20411;-83
2021/06/01 05:33:11;;;;;;;3.47;2.85;;;;;;;;;;1467315;40;20409;-86
2021/06/01 05:34:11;;;;;;;6.18;3.03;;;;;;;;;;1464810;40;20846;-82
2021/06/01 05:35:31;;;;;;;3.83;2.95;;;;;;;;;;1464750;40;20458;-83
2021/06/01 05:36:33;;;;;;;6.43;2.95;;;;;;;;;;1456945;40;20416;-82
2021/06/01 05:37:36;;;;;;;5.75;3.28;;;;;;;;;;1454296;40;20401;-83
2021/06/01 05:38:37;;;;;;;3.55;2.50;;;;;;;;;;1459770;40;21030;-84
2021/06/01 05:39:39;;;;;;;9.20;3.10;;;;;;;;;;1460399;40;20540;-81
2021/06/01 05:40:41;;;;;;;5.55;3.25;;;;;;;;;;1457378;40;20482;-84
2021/06/01 05:41:43;;;;;;;5.15;3.70;;;;;;;;;;1457270;40;20454;-84
2021/06/01 05:42:45;;;;;;;3.95;3.05;;;;;;;;;;1459360;40;20413;-82
2021/06/01 05:43:47;;;;;;;6.50;3.40;;;;;;;;;;1453976;40;20431;-80
2021/06/01 05:44:49;;;;;;;3.42;3.00;;;;;;;;;;1452120;40;20452;-83
2021/06/01 05:45:51;;;;;;;5.40;3.10;;;;;;;;;;1452854;40;20409;-83
2021/06/01 05:46:52;;;;;;;7.72;2.97;;;;;;;;;;1453501;40;20641;-83
2021/06/01 05:47:54;;;;;;;4.05;3.03;;;;;;;;;;1456429;40;20944;-81
2021/06/01 05:48:55;;;;;;;4.68;3.13;;;;;;;;;;1454900;40;20443;-81
2021/06/01 05:49:57;;;;;;;7.43;3.50;;;;;;;;;;1456294;40;20530;-83
2021/06/01 05:50:59;;;;;;;4.20;3.58;;;;;;;;;;1461706;40;20468;-83
2021/06/01 05:52:00;;;;;;;6.53;3.00;;;;;;;;;;1453359;40;20444;-83
2021/06/01 05:53:03;;;;;;;5.20;3.25;;;;;;;;;;1449995;40;20438;-82
2021/06/01 05:54:07;;;;;;;6.40;3.13;;;;;;;;;;1458545;40;20474;-84
2021/06/01 05:55:09;;;;;;;5.43;3.60;;;;;;;;;;1457351;40;20921;-83
2021/06/01 05:56:12;;;;;;;5.35;3.42;;;;;;;;;;1455609;40;20884;-81
2021/06/01 05:57:14;;;;;;;3.78;3.42;;;;;;;;;;1453117;40;20479;-83
2021/06/01 05:58:16;;;;;;;5.15;3.60;;;;;;;;;;1455868;40;20434;-82
2021/06/01 05:59:18;;;;;;;4.97;3.88;;;;;;;;;;1450842;40;20462;-82
2021/06/01 06:00:20;;;;;;;7.00;3.55;;;;;;;;;;1455334;40;20430;-82
2021/06/01 06:01:22;;;;;;;4.22;3.25;;;;;;;;;;1458551;40;20670;-81
2021/06/01 06:02:24;;;;;;;4.80;3.80;;;;;;;;;;1458774;40;20432;-82
2021/06/01 06:03:26;;;;;;;6.70;4.15;;;;;;;;;;1464998;40;20782;-82
2021/06/01 06:04:28;;;;;;;8.48;3.63;;;;;;;;;;1465635;40;20456;-83
2021/06/01 06:05:30;;;;;;;4.07;3.67;;;;;;;;;;1462996;40;20561;-81
2021/06/01 06:06:32;;;;;;;6.25;3.42;;;;;;;;;;1461151;40;20454;-81
2021/06/01 06:07:34;;;;;;;4.20;3.83;;;;;;;;;;1452893;40;20428;-84
2021/06/01 06:08:35;;;;;;;7.00;3.58;;;;;;;;;;1453343;40;20420;-83
2021/06/01 06:09:37;;;;;;;4.75;3.40;;;;;;;;;;1464078;40;20522;-84
2021/06/01 06:10:41;;;;;;;6.20;3.45;;;;;;;;;;1464843;40;20423;-83
2021/06/01 06:11:43;;;;;;;9.07;4.40;;;;;;;;;;1465666;40;20396;-85
2021/06/01 06:12:46;;;;;;;5.88;4.00;;;;;;;;;;1462983;40;20801;-85
2021/06/01 06:13:48;;;;;;;6.30;3.92;;;;;;;;;;1456727;40;20407;-83
2021/06/01 06:14:49;;;;;;;5.97;4.05;;;;;;;;;;1451980;40;20412;-83
2021/06/01 06:15:51;;;;;;;13.30;4.23;;;;;;;;;;1455154;40;20454;-82
2021/06/01 06:16:59;;;;;;;7.97;3.72;;;;;;;;;;1457413;40;20863;-83
2021/06/01 06:18:04;;;;;;;9.40;3.75;;;;;;;;;;1458209;40;20932;-83
2021/06/01 06:19:06;;;;;;;6.85;4.00;;;;;;;;;;1457074;40;20403;-83
2021/06/01 06:20:08;;;;;;;4.57;3.75;;;;;;;;;;1456753;40;20447;-83
2021/06/01 06:21:11;;;;;;;7.63;4.10;;;;;;;;;;1452578;40;20477;-84
2021/06/01 06:22:12;;;;;;;6.07;3.75;;;;;;;;;;1453026;40;20923;-83
2021/06/01 06:23:14;;;;;;;7.68;4.00;;;;;;;;;;1452753;40;20460;-83
2021/06/01 06:24:16;;;;;;;9.45;4.38;;;;;;;;;;1455489;40;20410;-84